This is the latest recevied weather packets stored in our database for station/object HK4D-13. If no packets are shown the sender has not sent any weather packets the latest 10 day(s).
| Time | Temp. | Humidity | Pressure | Rain* | Wind** | Luminosity | Snow |
|---|---|---|---|---|---|---|---|
| 1777651843 | 20.56° C | 66% | 1012 hPa | 0 mm | - | - | - |
| 1777651243 | 20° C | 67% | 1012 hPa | 0 mm | - | - | - |
| 1777650641 | 20° C | 68% | 1012 hPa | 0 mm | - | - | - |
| 1777650041 | 19.44° C | 70% | 1012 hPa | 0 mm | - | - | - |
| 1777649440 | 19.44° C | 70% | 1012 hPa | 0 mm | - | - | - |
| 1777648832 | 19.44° C | 71% | 1013 hPa | 0 mm | - | - | - |
| 1777648231 | 19.44° C | 73% | 1013 hPa | 0 mm | - | - | - |
| 1777647630 | 19.44° C | 75% | 1013 hPa | 0 mm | - | - | - |
| 1777647030 | 19.44° C | 76% | 1013 hPa | 0 mm | - | - | - |
| 1777646429 | 18.89° C | 77% | 1013 hPa | 0 mm | - | - | - |
| 1777645828 | 18.33° C | 78% | 1013 hPa | 0 mm | - | - | - |
| 1777645228 | 17.78° C | 80% | 1014 hPa | 0 mm | - | - | - |
| 1777644627 | 17.22° C | 82% | 1014 hPa | 0 mm | - | - | - |
| 1777644026 | 16.67° C | 85% | 1014 hPa | 0 mm | - | - | - |
| 1777643424 | 16.67° C | 87% | 1014 hPa | 0 mm | - | - | - |
| 1777642824 | 16.67° C | 87% | 1014 hPa | 0 mm | - | - | - |
| 1777642223 | 16.11° C | 89% | 1014 hPa | 0 mm | - | - | - |
| 1777641622 | 15.56° C | 93% | 1015 hPa | 0 mm | - | - | - |
| 1777641022 | 15.56° C | 95% | 1015 hPa | 0 mm | - | - | - |
| 1777640421 | 15.56° C | 94% | 1015 hPa | 0 mm | - | - | - |
| 1777639818 | 15.56° C | 94% | 1015 hPa | 0 mm | - | - | - |
| 1777639216 | 15.56° C | 94% | 1015 hPa | 0 mm | - | - | - |
| 1777638616 | 15.56° C | 94% | 1015 hPa | 0 mm | - | - | - |
| 1777638015 | 15.56° C | 94% | 1015 hPa | 0 mm | - | - | - |
| 1777637412 | 15.56° C | 94% | 1015 hPa | 0 mm | - | - | - |
* Rain latest hour (hover to see other rain measurements)
** Current wind speed in m/s (hover to see current wind gust speed)